Latest Weather Observations for Redcliffe

IDQ60801

Issued at 1:35 pm EST Thursday 18 September 2014 (issued every 30 minutes, with the page automatically refreshed every 10 minutes)

About weather observations | Map of weather stations | Latest weather observations for QLD | Other Formats
Station Details ID: 040958 Name: REDCLIFFE Lat: -27.22 Lon: 153.09 Height: 12.6 m
Data from the previous 72 hours. | See also: Recent months at Redcliffe
Date/Time
EST
Temp
°C
App
Temp
°C
Dew
Point
Rel
Hum
%
Delta-T
°C
Wind Press
QNH
hPa
Press
MSL
hPa
Rain
since 9 am
mm
Dir
 
Spd
km/h
Gust
km/h
Spd
kts
Gust
kts
18/01:30pm 23.9 17.9 3.2 26 10.0 ENE 24 32 13 17 1016.0 1015.9 0.0
18/01:00pm 25.3 20.7 -0.7 18 11.8 ESE 13 17 7 9 1016.3 1016.2 0.0
18/12:30pm 24.8 20.3 -0.4 19 11.5 SSW 13 26 7 14 1016.9 1016.8 0.0
18/12:00pm 24.1 19.6 -0.2 20 11.0 SSW 13 22 7 12 1017.4 1017.3 0.0
18/11:30am 23.9 18.2 -1.1 19 11.2 SSW 19 26 10 14 1017.8 1017.7 0.0
18/11:00am 23.3 17.2 -2.3 18 11.1 SSW 20 30 11 16 1018.4 1018.3 0.0
18/10:30am 23.6 18.2 -1.3 19 11.1 S 17 26 9 14 1018.8 1018.7 0.0
18/10:00am 23.2 17.4 -1.7 19 10.9 SSW 19 28 10 15 1019.1 1019.0 0.0
18/09:30am 22.6 16.4 -0.2 22 10.2 S 22 35 12 19 1019.4 1019.3 0.0
18/09:00am 21.7 16.2 -2.2 20 10.2 SSW 17 24 9 13 1019.6 1019.5 0.0
18/08:30am 21.3 16.3 1.6 27 9.1 SSW 17 26 9 14 1019.6 1019.5 0.0
18/08:00am 19.3 15.2 4.3 37 7.2 SW 15 20 8 11 1019.5 1019.4 0.0
18/07:30am 17.6 13.0 3.9 40 6.4 WSW 17 19 9 10 1019.2 1019.1 0.0
18/07:00am 16.6 12.4 3.6 42 6.0 WSW 15 19 8 10 1019.1 1019.0 0.0
18/06:30am 15.6 11.8 3.7 45 5.5 W 13 15 7 8 1018.6 1018.5 0.0
18/06:00am 15.2 11.2 2.7 43 5.6 W 13 15 7 8 1018.2 1018.1 0.0
18/05:30am 15.6 11.6 2.7 42 5.8 W 13 15 7 8 1017.8 1017.7 0.0
18/05:00am 16.0 12.4 2.8 41 6.0 W 11 15 6 8 1017.3 1017.2 0.0
18/04:30am 16.3 12.3 2.7 40 6.2 W 13 17 7 9 1016.9 1016.8 0.0
18/04:00am 15.8 12.3 3.3 43 5.7 W 11 13 6 7 1016.5 1016.4 0.0
18/03:30am 16.0 13.4 3.1 42 5.9 W 6 11 3 6 1016.3 1016.2 0.0
18/03:00am 15.9 13.8 4.0 45 5.5 W 4 7 2 4 1016.2 1016.1 0.0
18/02:30am 16.0 13.4 4.1 45 5.5 WNW 7 9 4 5 1015.9 1015.8 0.0
18/02:00am 16.8 13.6 3.1 40 6.3 WNW 9 11 5 6 1015.8 1015.7 0.0
18/01:30am 17.0 13.6 4.0 42 6.1 WSW 11 15 6 8 1015.4 1015.3 0.0
18/01:00am 17.2 13.1 4.2 42 6.1 WSW 15 20 8 11 1015.2 1015.1 0.0
18/12:30am 17.7 14.0 4.6 42 6.2 SW 13 17 7 9 1014.8 1014.7 0.0
18/12:00am 17.4 13.0 4.7 43 6.0 SW 17 22 9 12 1014.8 1014.7 0.0
 
Date/Time
EST
Temp
°C
App
Temp
°C
Dew
Point
Rel
Hum
%
Delta-T
°C
Wind Press
QNH
hPa
Press
MSL
hPa
Rain
since 9 am
mm
Dir
 
Spd
km/h
Gust
km/h
Spd
kts
Gust
kts
17/11:30pm 17.5 13.9 6.7 49 5.4 WSW 15 19 8 10 1014.9 1014.8 0.0
17/11:00pm 17.8 14.8 7.5 51 5.2 WSW 13 17 7 9 1015.0 1014.9 0.0
17/10:30pm 17.5 15.2 10.6 64 3.7 SW 13 15 7 8 1014.7 1014.6 0.0
17/10:00pm 19.7 17.1 6.1 41 6.8 WSW 9 11 5 6 1014.7 1014.6 0.0
17/09:30pm 18.2 17.2 12.4 69 3.2 W 9 11 5 6 1014.9 1014.8 0.0
17/09:00pm 18.5 19.0 15.0 80 2.0 W 6 7 3 4 1014.5 1014.4 0.0
17/08:30pm 19.0 19.6 15.7 81 2.0 NW 7 9 4 5 1014.1 1014.0 0.0
17/08:00pm 19.6 19.9 15.9 79 2.2 NNW 9 11 5 6 1014.0 1013.9 0.0
17/07:30pm 20.5 21.0 16.5 78 2.4 NW 9 13 5 7 1013.6 1013.5 0.0
17/07:00pm 20.6 19.7 15.8 74 2.9 N 15 19 8 10 1013.2 1013.1 0.0
17/06:30pm 21.2 20.5 15.5 70 3.4 WNW 13 17 7 9 1012.8 1012.7 0.0
17/06:00pm 21.7 19.2 15.1 66 3.9 N 22 26 12 14 1012.3 1012.2 0.0
17/05:30pm 22.0 17.1 12.5 54 5.4 NNE 30 35 16 19 1011.8 1011.7 0.0
17/05:00pm 23.2 18.6 9.6 42 7.4 N 24 28 13 15 1011.4 1011.3 0.0
17/04:30pm 23.6 20.4 11.3 46 6.9 N 19 24 10 13 1011.3 1011.2 0.0
17/04:00pm 24.1 19.6 10.0 41 7.7 NNE 24 28 13 15 1011.0 1010.9 0.0
17/03:30pm 23.9 18.7 10.2 42 7.5 NNE 28 32 15 17 1010.8 1010.7 0.0
17/03:00pm 24.5 19.1 10.8 42 7.6 NNE 30 33 16 18 1010.9 1010.8 0.0
17/02:30pm 24.1 18.8 9.7 40 7.9 NNE 28 32 15 17 1011.1 1011.0 0.0
17/02:00pm 24.2 18.9 9.8 40 7.9 NE 28 32 15 17 1011.5 1011.4 0.0
17/01:30pm 27.4 22.5 6.8 27 10.9 NE 22 26 12 14 1012.0 1011.9 0.0
17/01:00pm 26.5 23.3 9.8 35 9.3 NE 17 20 9 11 1012.5 1012.4 0.0
17/12:30pm 27.0 22.2 2.8 21 11.9 ENE 17 20 9 11 1012.9 1012.8 0.0
17/12:00pm 27.1 23.0 2.2 20 12.1 ENE 13 17 7 9 1013.3 1013.2 0.0
17/11:30am 26.8 23.3 3.3 22 11.6 ENE 11 15 6 8 1013.7 1013.6 0.0
17/11:00am 26.7 22.0 3.2 22 11.6 N 17 19 9 10 1014.1 1014.0 0.0
17/10:30am 25.4 20.4 1.5 21 11.3 SW 17 24 9 13 1014.7 1014.6 0.0
17/10:00am 25.9 21.3 3.8 24 11.0 SSW 17 24 9 13 1014.9 1014.8 0.0
17/09:30am 24.6 20.2 4.9 28 9.9 SW 17 24 9 13 1015.1 1015.0 0.0
17/09:00am 23.7 19.5 5.6 31 9.1 SW 17 24 9 13 1015.3 1015.2 2.6
17/08:30am 22.3 18.4 7.3 38 7.8 WNW 17 22 9 12 1015.4 1015.3 2.6
17/08:00am 20.8 17.5 9.7 49 5.9 WNW 17 22 9 12 1015.3 1015.2 2.6
17/07:30am 18.9 16.2 10.5 58 4.5 WNW 15 17 8 9 1015.1 1015.0 2.6
17/07:00am 17.6 15.4 10.7 64 3.7 WNW 13 19 7 10 1014.9 1014.8 2.6
17/06:30am 16.0 13.3 10.5 70 2.9 NW 15 17 8 9 1014.5 1014.4 2.6
17/06:00am 15.5 13.2 10.5 72 2.6 NW 13 19 7 10 1014.1 1014.0 2.6
17/05:30am 15.9 13.4 10.9 72 2.7 NNW 15 19 8 10 1013.9 1013.8 2.6
17/05:00am 15.7 13.1 10.7 72 2.7 NNW 15 20 8 11 1013.7 1013.6 2.6
17/04:30am 17.9 15.5 11.5 66 3.5 NNW 15 20 8 11 1013.4 1013.3 2.6
17/04:00am 17.9 14.9 11.9 68 3.3 NNW 19 26 10 14 1013.1 1013.0 2.6
17/03:30am 18.5 15.2 11.6 64 3.8 N 20 26 11 14 1012.9 1012.8 2.6
17/03:00am 18.6 15.2 11.2 62 4.0 N 20 28 11 15 1012.8 1012.7 2.6
17/02:30am 18.9 15.5 10.7 59 4.4 N 19 24 10 13 1012.7 1012.6 2.6
17/02:00am 19.0 15.6 11.1 60 4.3 N 20 28 11 15 1013.0 1012.9 2.6
17/01:30am 19.1 15.7 11.4 61 4.2 N 20 26 11 14 1013.2 1013.1 2.6
17/01:00am 19.0 15.8 11.1 60 4.3 N 19 28 10 15 1013.3 1013.2 2.6
17/12:30am 19.0 16.0 10.8 59 4.4 N 17 22 9 12 1013.5 1013.4 2.6
17/12:00am 19.2 15.9 11.0 59 4.5 N 19 26 10 14 1013.6 1013.5 2.6
 
Date/Time
EST
Temp
°C
App
Temp
°C
Dew
Point
Rel
Hum
%
Delta-T
°C
Wind Press
QNH
hPa
Press
MSL
hPa
Rain
since 9 am
mm
Dir
 
Spd
km/h
Gust
km/h
Spd
kts
Gust
kts
16/11:30pm 18.8 15.7 11.6 63 4.0 N 19 28 10 15 1013.7 1013.6 2.6
16/11:00pm 19.5 16.3 11.8 61 4.3 N 20 30 11 16 1013.6 1013.5 2.6
16/10:30pm 19.8 16.4 12.6 63 4.0 N 22 33 12 18 1013.4 1013.3 2.6
16/10:00pm 19.9 17.8 13.6 67 3.6 N 17 24 9 13 1013.1 1013.0 2.6
16/09:30pm 19.7 17.9 15.4 76 2.5 N 19 26 10 14 1013.3 1013.2 2.6
16/09:00pm 20.2 18.5 16.2 78 2.4 N 20 28 11 15 1013.4 1013.3 2.6
16/08:30pm 20.3 17.9 16.3 78 2.4 N 24 32 13 17 1013.0 1012.9 2.6
16/08:00pm 20.7 16.4 16.9 79 2.3 N 35 44 19 24 1012.8 1012.7 2.6
16/07:30pm 21.0 17.0 16.8 77 2.6 N 33 43 18 23 1013.3 1013.2 2.6
16/07:00pm 20.3 16.4 16.5 79 2.3 N 32 37 17 20 1012.7 1012.6 2.6
16/06:30pm 20.8 19.9 15.8 73 3.0 NNW 15 22 8 12 1014.0 1013.9 2.6
16/06:02pm 21.2 17.1 16.0 72 3.1 N 32 50 17 27 1012.9 1012.8 2.2
16/06:00pm 21.6 16.8 15.7 69 3.5 N 35 50 19 27 1012.7 1012.6 2.2
16/05:30pm 21.9 15.2 15.0 65 4.1 N 44 54 24 29 1011.3 1011.2 2.2
16/05:00pm 21.9 16.8 13.0 57 5.1 N 32 37 17 20 1011.0 1010.9 2.2
16/04:30pm 22.0 17.1 15.4 66 3.9 N 35 41 19 22 1011.0 1010.9 2.2
16/04:00pm 22.0 17.2 16.5 71 3.3 NNE 37 43 20 23 1011.2 1011.1 2.2
16/03:30pm 22.1 17.6 16.4 70 3.5 NNE 35 41 19 22 1011.6 1011.5 2.2
16/03:00pm 21.7 17.8 16.9 74 2.9 N 33 46 18 25 1011.7 1011.6 2.2
16/02:30pm 22.3 16.9 15.9 67 3.9 NNE 39 44 21 24 1011.5 1011.4 0.0
16/02:00pm 23.6 18.0 15.4 60 4.9 NNE 39 46 21 25 1011.7 1011.6 0.0
16/01:30pm 23.7 18.3 14.9 57 5.2 NE 37 41 20 22 1012.1 1012.0 0.0
16/01:00pm 24.2 19.2 15.1 56 5.5 NNE 35 39 19 21 1012.8 1012.7 0.0
16/12:30pm 23.9 19.8 15.9 61 4.8 NNE 32 35 17 19 1013.5 1013.4 0.0
16/12:00pm 24.1 20.4 16.1 61 4.9 NE 30 35 16 19 1014.0 1013.9 0.0
16/11:30am 24.1 20.7 14.8 56 5.5 NNE 26 28 14 15 1014.8 1014.7 0.0
16/11:00am 24.4 21.4 13.6 51 6.3 NE 22 26 12 14 1015.4 1015.3 0.0
16/10:30am 23.6 21.2 12.6 50 6.3 NE 17 19 9 10 1016.1 1016.0 0.0
16/10:00am 22.7 20.9 12.0 50 6.0 NNW 13 19 7 10 1016.8 1016.7 0.0
16/09:30am 21.5 19.3 13.4 60 4.7 NNE 17 19 9 10 1017.2 1017.1 0.0
16/09:00am 20.1 17.8 14.0 68 3.5 NNE 19 22 10 12 1017.1 1017.0 7.4
16/08:30am 19.2 18.0 14.0 72 3.0 N 13 19 7 10 1017.5 1017.4 7.4
16/08:00am 17.9 16.5 13.4 75 2.5 NNW 13 17 7 9 1017.5 1017.4 7.4
16/07:30am 17.3 16.3 13.4 78 2.2 NNW 11 15 6 8 1017.5 1017.4 7.4
16/07:00am 17.1 16.6 13.8 81 1.9 NNW 9 13 5 7 1017.3 1017.2 7.4
16/06:30am 15.2 14.2 12.3 83 1.6 NNW 9 11 5 6 1017.0 1016.9 7.4
16/06:00am 14.5 13.8 12.0 85 1.3 NW 7 9 4 5 1016.9 1016.8 7.4
16/05:30am 14.6 13.5 12.1 85 1.4 NW 9 13 5 7 1016.6 1016.5 7.4
16/05:00am 14.5 13.0 12.0 85 1.3 WNW 11 15 6 8 1016.3 1016.2 7.4
16/04:30am 14.5 13.4 11.8 84 1.5 WNW 9 11 5 6 1016.1 1016.0 7.4
16/04:00am 14.8 13.7 12.1 84 1.5 WNW 9 11 5 6 1015.8 1015.7 7.4
16/03:30am 15.1 14.1 12.2 83 1.6 NNW 9 13 5 7 1015.6 1015.5 7.4
16/03:00am 16.2 14.9 12.4 78 2.1 N 11 17 6 9 1015.5 1015.4 7.4
16/02:30am 17.7 16.2 13.2 75 2.5 N 13 17 7 9 1015.5 1015.4 7.4
16/02:00am 18.0 15.9 13.5 75 2.5 N 17 20 9 11 1015.5 1015.4 7.4
16/01:30am 18.1 15.6 13.4 74 2.7 N 19 26 10 14 1015.3 1015.2 7.4
16/01:00am 18.2 16.0 13.3 73 2.8 N 17 24 9 13 1015.7 1015.6 7.4
16/12:30am 18.3 16.1 13.4 73 2.8 N 17 22 9 12 1015.8 1015.7 7.4
16/12:00am 18.7 16.1 13.3 71 3.1 N 19 22 10 12 1016.0 1015.9 7.4
 
Date/Time
EST
Temp
°C
App
Temp
°C
Dew
Point
Rel
Hum
%
Delta-T
°C
Wind Press
QNH
hPa
Press
MSL
hPa
Rain
since 9 am
mm
Dir
 
Spd
km/h
Gust
km/h
Spd
kts
Gust
kts
15/11:30pm 18.8 15.8 13.6 72 3.0 N 22 30 12 16 1016.1 1016.0 7.4
15/11:00pm 19.1 16.2 14.1 73 2.9 N 22 33 12 18 1016.1 1016.0 7.4
15/10:30pm 19.2 16.7 14.2 73 2.9 N 20 28 11 15 1016.4 1016.3 7.4
15/10:00pm 19.2 17.2 14.9 76 2.5 N 19 28 10 15 1016.6 1016.5 7.4
15/09:30pm 19.3 17.4 15.2 77 2.4 N 19 26 10 14 1016.8 1016.7 7.4
15/09:00pm 19.3 17.8 15.2 77 2.4 N 17 24 9 13 1016.7 1016.6 7.4
15/08:30pm 19.4 17.5 15.1 76 2.5 N 19 24 10 13 1016.6 1016.5 7.4
15/08:00pm 19.6 17.7 15.3 76 2.5 N 19 26 10 14 1016.7 1016.6 7.4
15/07:30pm 19.6 17.4 15.0 75 2.7 N 20 26 11 14 1016.3 1016.2 7.4
15/07:00pm 19.9 17.0 15.1 74 2.8 N 24 32 13 17 1016.1 1016.0 7.4
15/06:30pm 20.0 16.3 15.0 73 2.9 N 28 33 15 18 1015.7 1015.6 7.4
15/06:00pm 20.1 16.1 15.3 74 2.8 N 30 33 16 18 1015.6 1015.5 7.4
15/05:30pm 20.3 15.3 15.1 72 3.1 N 35 39 19 21 1015.2 1015.1 0.0
15/05:00pm 20.7 16.0 14.8 69 3.5 N 33 39 18 21 1014.9 1014.8 0.0
15/04:30pm 21.2 16.5 14.4 65 4.0 N 32 37 17 20 1014.6 1014.5 0.0
15/04:00pm 22.0 18.1 13.4 58 5.0 NE 26 32 14 17 1014.6 1014.5 0.0
15/03:30pm 22.1 16.7 12.9 56 5.3 NNE 33 37 18 20 1014.6 1014.5 0.0
15/03:00pm 22.2 17.0 12.7 55 5.4 NE 32 37 17 20 1014.7 1014.6 0.0
15/02:30pm 22.2 17.3 13.8 59 4.9 NE 32 33 17 18 1015.0 1014.9 0.0
15/02:00pm 22.1 17.3 14.0 60 4.7 NE 32 35 17 19 1015.2 1015.1 0.0

Other Formats:

Comma delimited format used in spreadsheet applications
http://www.bom.gov.au/fwo/IDQ60801/IDQ60801.95591.axf

JavaScript Object Notation format (JSON) in row-major order
http://www.bom.gov.au/fwo/IDQ60801/IDQ60801.95591.json